createdAt,value
2018-09-05T00:02:23.586Z,17.00
2018-09-05T00:04:50.768Z,17.63
2018-09-05T00:07:17.933Z,17.97
2018-09-05T00:09:45.116Z,18.87
2018-09-05T00:12:12.292Z,17.27
2018-09-05T00:14:39.462Z,18.47
2018-09-05T00:17:06.628Z,17.00
2018-09-05T00:19:33.806Z,17.03
2018-09-05T00:22:00.981Z,17.00
2018-09-05T00:24:28.160Z,16.57
2018-09-05T00:26:55.326Z,18.50
2018-09-05T00:29:22.515Z,17.87
2018-09-05T00:31:49.686Z,17.00
2018-09-05T00:34:16.865Z,19.03
2018-09-05T00:36:44.035Z,19.40
2018-09-05T00:39:11.244Z,17.23
2018-09-05T00:41:38.487Z,18.50
2018-09-05T00:44:05.695Z,17.97
2018-09-05T00:46:32.860Z,17.50
2018-09-05T00:49:00.468Z,18.83
2018-09-05T00:51:27.619Z,17.00
2018-09-05T00:53:54.806Z,18.57
2018-09-05T00:56:21.980Z,19.23
2018-09-05T00:58:49.155Z,17.73
2018-09-05T01:01:16.323Z,18.70
2018-09-05T01:03:43.505Z,16.50
2018-09-05T01:06:10.711Z,19.87
2018-09-05T01:08:37.917Z,18.80
2018-09-05T01:11:05.086Z,17.67
2018-09-05T01:13:32.255Z,19.43
2018-09-05T01:15:59.439Z,19.20
2018-09-05T01:18:26.609Z,20.67
2018-09-05T01:20:54.811Z,19.87
2018-09-05T01:23:21.970Z,19.63
2018-09-05T01:25:49.148Z,17.67
2018-09-05T01:28:16.343Z,18.50
2018-09-05T01:30:43.524Z,19.00
2018-09-05T01:33:10.681Z,20.10
2018-09-05T01:35:37.888Z,18.53
2018-09-05T01:38:05.079Z,18.47
2018-09-05T01:40:32.263Z,20.40
2018-09-05T01:42:59.410Z,19.30
2018-09-05T01:45:26.643Z,18.70
2018-09-05T01:47:53.813Z,17.33
2018-09-05T01:50:25.328Z,21.50
2018-09-05T01:52:52.503Z,20.30
2018-09-05T01:55:19.683Z,20.63
2018-09-05T01:57:46.838Z,19.10
2018-09-05T02:00:19.622Z,20.13
2018-09-05T02:02:46.783Z,19.60
2018-09-05T02:05:13.973Z,20.40
2018-09-05T02:07:41.143Z,19.80
2018-09-05T02:10:08.358Z,21.00
2018-09-05T02:12:35.522Z,19.90
2018-09-05T02:15:02.716Z,19.43
2018-09-05T02:17:29.861Z,19.30
2018-09-05T02:19:57.203Z,20.10
2018-09-05T02:22:24.358Z,20.67
2018-09-05T02:24:51.538Z,18.90
2018-09-05T02:27:18.720Z,18.70
2018-09-05T02:29:45.897Z,18.83
2018-09-05T02:32:13.065Z,20.33
2018-09-05T02:34:40.240Z,19.63
2018-09-05T02:37:07.420Z,20.70
2018-09-05T02:39:34.600Z,20.93
2018-09-05T02:42:01.758Z,19.87
2018-09-05T02:44:28.963Z,17.37
2018-09-05T02:46:56.132Z,18.70
2018-09-05T02:49:23.323Z,21.70
2018-09-05T02:51:50.488Z,19.07
2018-09-05T02:54:17.651Z,19.67
2018-09-05T02:56:44.834Z,21.20
2018-09-05T02:59:11.996Z,20.10
2018-09-05T03:01:39.180Z,21.00
2018-09-05T03:04:06.356Z,17.67
2018-09-05T03:06:33.545Z,21.30
2018-09-05T03:09:00.724Z,21.33
2018-09-05T03:11:27.898Z,18.10
2018-09-05T03:13:55.058Z,18.50
2018-09-05T03:16:22.239Z,18.73
2018-09-05T03:18:49.418Z,20.53
2018-09-05T03:21:16.611Z,17.37
2018-09-05T03:23:43.770Z,21.20
2018-09-05T03:26:10.938Z,18.40
2018-09-05T03:28:38.102Z,19.50
2018-09-05T03:31:05.630Z,19.63
2018-09-05T03:33:32.792Z,19.20
2018-09-05T03:35:59.964Z,19.40
2018-09-05T03:38:27.139Z,18.20
2018-09-05T03:40:54.547Z,20.40
2018-09-05T03:43:21.707Z,20.90
2018-09-05T03:45:48.878Z,20.80
2018-09-05T03:48:16.292Z,20.10
2018-09-05T03:50:43.463Z,21.23
2018-09-05T03:53:10.618Z,19.97
2018-09-05T03:55:37.786Z,18.50
2018-09-05T03:58:04.964Z,22.00
2018-09-05T04:00:33.819Z,20.83
2018-09-05T04:03:01.338Z,21.40
2018-09-05T04:05:28.567Z,20.13
2018-09-05T04:07:55.766Z,19.10
2018-09-05T04:10:22.937Z,20.17
2018-09-05T04:12:50.142Z,20.77
2018-09-05T04:15:18.496Z,20.07
2018-09-05T04:17:47.026Z,18.73
2018-09-05T04:20:15.343Z,20.00
2018-09-05T04:22:44.062Z,21.13
2018-09-05T04:25:11.306Z,18.70
2018-09-05T04:27:38.709Z,21.27
2018-09-05T04:30:05.995Z,19.50
2018-09-05T04:32:33.625Z,18.80
2018-09-05T04:35:00.785Z,20.70
2018-09-05T04:37:29.994Z,19.00
2018-09-05T04:39:57.243Z,21.93
2018-09-05T04:42:24.443Z,20.73
2018-09-05T04:44:51.615Z,20.40
2018-09-05T04:47:18.796Z,20.30
2018-09-05T04:49:45.953Z,19.60
2018-09-05T04:52:13.129Z,20.83
2018-09-05T04:54:40.356Z,22.17
2018-09-05T04:57:07.558Z,22.50
2018-09-05T04:59:35.070Z,22.23
2018-09-05T05:02:02.240Z,23.93
2018-09-05T05:04:29.426Z,22.67
2018-09-05T05:09:30.382Z,19.73
2018-09-05T05:11:57.574Z,22.20
2018-09-05T05:14:24.760Z,20.90
2018-09-05T05:16:51.930Z,21.40
2018-09-05T05:19:19.118Z,22.97
2018-09-05T05:21:46.278Z,22.20
2018-09-05T05:24:13.462Z,22.80
2018-09-05T05:26:40.627Z,20.47
2018-09-05T05:29:07.773Z,26.10
2018-09-05T05:31:34.964Z,23.50
2018-09-05T05:34:02.148Z,23.90
2018-09-05T05:36:29.295Z,21.27
2018-09-05T05:38:56.435Z,24.50
2018-09-05T05:41:23.623Z,24.10
2018-09-05T05:43:50.799Z,21.97
2018-09-05T05:46:17.978Z,21.83
2018-09-05T05:48:45.139Z,22.13
2018-09-05T05:51:12.327Z,23.50
2018-09-05T05:53:39.505Z,21.87
2018-09-05T05:56:06.654Z,23.17
2018-09-05T05:58:33.838Z,21.47
2018-09-05T06:01:01.136Z,23.50
2018-09-05T06:03:28.208Z,23.50
2018-09-05T06:05:55.407Z,22.90
2018-09-05T06:08:22.542Z,22.00
2018-09-05T06:10:49.730Z,23.27
2018-09-05T06:13:16.891Z,23.00
2018-09-05T06:15:44.075Z,22.23
2018-09-05T06:18:11.232Z,22.37
2018-09-05T06:20:38.416Z,20.90
2018-09-05T06:23:05.582Z,20.93
2018-09-05T06:25:32.770Z,22.07
2018-09-05T06:27:59.935Z,21.50
2018-09-05T06:30:27.149Z,21.03
2018-09-05T06:32:54.336Z,21.03
2018-09-05T06:35:21.526Z,21.43
2018-09-05T06:37:48.692Z,21.57
2018-09-05T06:40:15.858Z,21.77
2018-09-05T06:42:43.071Z,21.57
2018-09-05T06:45:10.313Z,22.37
2018-09-05T06:47:37.434Z,20.97
2018-09-05T06:50:04.603Z,23.47
2018-09-05T06:52:31.786Z,23.50
2018-09-05T06:54:58.948Z,21.30
2018-09-05T06:57:26.157Z,21.30
2018-09-05T06:59:53.384Z,22.00
2018-09-05T07:02:20.634Z,20.27
2018-09-05T07:04:48.138Z,19.63
2018-09-05T07:07:15.326Z,20.40
2018-09-05T07:09:42.508Z,22.20
2018-09-05T07:12:09.683Z,20.80
2018-09-05T07:14:37.006Z,20.97
2018-09-05T07:17:04.123Z,20.73
2018-09-05T07:19:31.314Z,22.17
2018-09-05T07:21:58.535Z,20.80
2018-09-05T07:24:25.698Z,20.27
2018-09-05T07:26:52.855Z,21.40
2018-09-05T07:29:20.051Z,21.17
2018-09-05T07:31:47.210Z,21.43
2018-09-05T07:34:14.398Z,18.83
2018-09-05T07:36:41.568Z,19.30
2018-09-05T07:39:09.293Z,20.50
2018-09-05T07:41:36.483Z,23.90
2018-09-05T07:44:03.753Z,20.67
2018-09-05T07:46:31.140Z,21.43
2018-09-05T07:48:58.326Z,21.10
2018-09-05T07:51:25.529Z,20.30
2018-09-05T07:53:52.690Z,19.73
2018-09-05T07:56:19.866Z,21.43
2018-09-05T07:58:47.068Z,21.70
2018-09-05T08:01:14.256Z,21.30
2018-09-05T08:03:41.460Z,20.27
2018-09-05T08:06:08.635Z,23.47
2018-09-05T08:08:35.834Z,21.90
2018-09-05T08:11:03.013Z,22.60
2018-09-05T08:13:30.212Z,20.00
2018-09-05T08:15:57.375Z,21.73
2018-09-05T08:18:24.596Z,20.50
2018-09-05T08:20:51.748Z,21.27
2018-09-05T08:23:18.933Z,20.33
2018-09-05T08:25:46.130Z,19.80
2018-09-05T08:28:13.309Z,19.10
2018-09-05T08:30:40.476Z,17.67
2018-09-05T08:33:07.677Z,18.13
2018-09-05T08:35:35.038Z,19.27
2018-09-05T08:38:02.072Z,19.50
2018-09-05T08:40:29.243Z,19.40
2018-09-05T08:42:56.404Z,18.47
2018-09-05T08:45:23.968Z,17.83
2018-09-05T08:47:51.015Z,18.00
2018-09-05T08:50:18.095Z,19.20
2018-09-05T08:52:45.356Z,18.67
2018-09-05T08:55:12.495Z,17.67
2018-09-05T08:57:39.669Z,16.93
2018-09-05T09:00:06.856Z,18.03
2018-09-05T09:02:34.019Z,17.33
2018-09-05T09:05:01.242Z,15.63
2018-09-05T09:07:28.404Z,16.00
2018-09-05T09:09:55.844Z,14.83
2018-09-05T09:12:23.026Z,15.93
2018-09-05T09:14:50.206Z,15.47
2018-09-05T09:17:17.379Z,15.77
2018-09-05T09:19:44.558Z,15.40
2018-09-05T09:22:11.731Z,15.13
2018-09-05T09:24:38.944Z,16.13
2018-09-05T09:27:06.307Z,16.50
2018-09-05T09:29:33.495Z,16.13
2018-09-05T09:32:00.706Z,16.93
2018-09-05T09:34:27.892Z,15.30
2018-09-05T09:36:55.074Z,16.13
2018-09-05T09:39:22.249Z,15.10
2018-09-05T09:41:49.447Z,14.97
2018-09-05T09:44:16.613Z,14.50
2018-09-05T09:46:43.940Z,15.13
2018-09-05T09:49:11.063Z,14.47
2018-09-05T09:51:38.226Z,15.17
2018-09-05T09:54:05.457Z,16.37
2018-09-05T09:56:32.693Z,15.43
2018-09-05T09:58:59.853Z,15.63
2018-09-05T10:01:32.618Z,17.03
2018-09-05T10:04:05.270Z,15.50
2018-09-05T10:06:38.025Z,16.10
2018-09-05T10:09:12.348Z,16.40
2018-09-05T10:12:43.674Z,14.97
2018-09-05T10:15:17.190Z,14.70
2018-09-05T10:17:44.388Z,16.20
2018-09-05T10:20:11.556Z,14.77
2018-09-05T10:22:38.757Z,15.20
2018-09-05T10:25:05.970Z,14.90
2018-09-05T10:27:33.170Z,14.43
2018-09-05T10:30:00.364Z,15.17
2018-09-05T10:32:27.535Z,14.83
2018-09-05T10:34:55.644Z,15.93
2018-09-05T10:37:22.857Z,15.37
2018-09-05T10:39:50.098Z,15.87
2018-09-05T10:42:17.283Z,16.07
2018-09-05T10:44:44.476Z,15.60
2018-09-05T10:47:11.681Z,15.27
2018-09-05T10:49:38.870Z,15.00
2018-09-05T10:52:08.223Z,14.47
2018-09-05T10:54:35.479Z,15.93
2018-09-05T10:57:03.509Z,15.70
2018-09-05T10:59:30.701Z,15.20
2018-09-05T11:01:58.382Z,14.90
2018-09-05T11:04:25.835Z,14.30
2018-09-05T11:06:53.019Z,14.53
2018-09-05T11:09:20.217Z,13.83
2018-09-05T11:11:47.378Z,15.60
2018-09-05T11:14:14.571Z,15.60
2018-09-05T11:16:41.878Z,15.97
2018-09-05T11:19:09.554Z,16.30
2018-09-05T11:21:36.741Z,16.47
2018-09-05T11:24:03.975Z,15.83
2018-09-05T11:26:31.155Z,16.10
2018-09-05T11:28:58.993Z,17.23
2018-09-05T11:31:26.157Z,16.10
2018-09-05T11:33:53.493Z,15.90
2018-09-05T11:36:20.739Z,16.60
2018-09-05T11:38:47.918Z,17.73
2018-09-05T11:41:15.083Z,18.33
2018-09-05T11:43:42.280Z,17.40
2018-09-05T11:46:09.438Z,19.30
2018-09-05T11:48:36.613Z,18.10
2018-09-05T11:51:03.766Z,17.57
2018-09-05T11:53:30.943Z,15.90
2018-09-05T11:55:58.105Z,17.50
2018-09-05T11:58:25.286Z,15.47
2018-09-05T12:00:52.450Z,12.80
2018-09-05T12:03:19.737Z,13.70
2018-09-05T12:05:46.903Z,12.37
2018-09-05T12:08:14.078Z,12.57
2018-09-05T12:10:41.251Z,13.50
2018-09-05T12:13:08.422Z,12.40
2018-09-05T12:15:35.586Z,13.57
2018-09-05T12:18:02.766Z,14.13
2018-09-05T12:20:29.919Z,14.03
2018-09-05T12:22:57.123Z,12.50
2018-09-05T12:25:24.293Z,12.80
2018-09-05T12:27:51.464Z,12.90
2018-09-05T12:30:18.636Z,13.73
2018-09-05T12:32:45.802Z,12.60
2018-09-05T12:35:12.989Z,13.70
2018-09-05T12:37:40.155Z,13.07
2018-09-05T12:40:07.346Z,14.00
2018-09-05T12:42:34.503Z,13.63
2018-09-05T12:45:01.671Z,12.93
2018-09-05T12:47:28.836Z,12.63
2018-09-05T12:49:56.009Z,13.23
2018-09-05T12:52:23.164Z,13.27
2018-09-05T12:54:50.350Z,13.17
2018-09-05T12:57:17.563Z,13.27
2018-09-05T12:59:44.835Z,12.17
2018-09-05T13:02:11.996Z,12.57
2018-09-05T13:04:39.174Z,12.27
2018-09-05T13:07:06.400Z,12.90
2018-09-05T13:09:33.650Z,12.60
2018-09-05T13:12:00.839Z,12.27
2018-09-05T13:14:28.022Z,11.90
2018-09-05T13:16:55.191Z,11.93
2018-09-05T13:19:22.358Z,10.57
2018-09-05T13:21:49.523Z,10.60
2018-09-05T13:24:16.805Z,10.60
2018-09-05T13:26:43.978Z,12.23
2018-09-05T13:29:11.130Z,11.80
2018-09-05T13:31:38.298Z,11.50
2018-09-05T13:34:05.483Z,11.67
2018-09-05T13:36:32.682Z,10.57
2018-09-05T13:38:59.858Z,10.80
2018-09-05T13:41:27.030Z,10.97
2018-09-05T13:43:54.275Z,10.53
2018-09-05T13:46:21.442Z,11.10
2018-09-05T13:48:48.628Z,9.60
2018-09-05T13:51:15.807Z,11.20
2018-09-05T13:53:43.014Z,11.00
2018-09-05T13:56:10.242Z,11.00
2018-09-05T13:58:37.431Z,11.17
2018-09-05T14:01:04.607Z,10.13
2018-09-05T14:03:31.775Z,10.97
2018-09-05T14:05:58.988Z,10.90
2018-09-05T14:08:26.166Z,10.60
2018-09-05T14:10:53.347Z,11.63
2018-09-05T14:13:20.567Z,10.87
2018-09-05T14:15:47.714Z,9.77
2018-09-05T14:18:14.882Z,10.07
2018-09-05T14:20:42.142Z,10.70
2018-09-05T14:23:09.268Z,9.83
2018-09-05T14:25:36.445Z,10.20
2018-09-05T14:28:03.630Z,9.30
2018-09-05T14:30:30.810Z,9.93
2018-09-05T14:32:57.969Z,9.87
2018-09-05T14:35:25.151Z,10.10
2018-09-05T14:37:52.314Z,10.07
2018-09-05T14:40:19.503Z,10.30
2018-09-05T14:42:46.663Z,10.20
2018-09-05T14:45:13.858Z,9.63
2018-09-05T14:47:41.014Z,10.57
2018-09-05T14:50:08.198Z,10.23
2018-09-05T14:52:35.394Z,10.97
2018-09-05T14:55:02.587Z,10.83
2018-09-05T14:57:29.787Z,10.90
2018-09-05T14:59:57.014Z,10.83
2018-09-05T15:02:24.176Z,9.90
2018-09-05T15:04:51.384Z,10.03
2018-09-05T15:07:18.595Z,11.10
2018-09-05T15:09:45.783Z,9.80
2018-09-05T15:12:12.948Z,10.37
2018-09-05T15:14:40.134Z,10.00
2018-09-05T15:17:07.591Z,10.20
2018-09-05T15:19:34.776Z,10.37
2018-09-05T15:22:01.945Z,11.03
2018-09-05T15:24:29.138Z,10.97
2018-09-05T15:26:56.323Z,10.90
2018-09-05T15:29:23.506Z,10.70
2018-09-05T15:31:50.701Z,10.93
2018-09-05T15:34:17.867Z,11.20
2018-09-05T15:36:45.111Z,11.00
2018-09-05T15:39:12.282Z,10.27
2018-09-05T15:41:39.596Z,10.47
2018-09-05T15:44:06.767Z,10.47
2018-09-05T15:46:33.954Z,11.60
2018-09-05T15:49:01.131Z,11.00
2018-09-05T15:51:34.802Z,10.67
2018-09-05T15:54:02.091Z,10.40
2018-09-05T15:56:29.167Z,11.13
2018-09-05T15:58:56.350Z,11.33
2018-09-05T16:01:23.542Z,10.90
2018-09-05T16:03:50.711Z,11.10
2018-09-05T16:06:17.899Z,11.77
2018-09-05T16:08:45.071Z,10.17
2018-09-05T16:11:12.259Z,11.43
2018-09-05T16:13:39.419Z,10.80
2018-09-05T16:16:06.621Z,11.00
2018-09-05T16:18:33.787Z,11.00
2018-09-05T16:21:00.973Z,10.67
2018-09-05T16:23:28.166Z,10.83
2018-09-05T16:25:55.370Z,10.70
2018-09-05T16:28:22.542Z,10.80
2018-09-05T16:30:49.735Z,10.30
2018-09-05T16:33:16.939Z,10.20
2018-09-05T16:35:44.163Z,10.97
2018-09-05T16:38:11.352Z,10.50
2018-09-05T16:40:38.537Z,10.87
2018-09-05T16:43:05.979Z,11.83
2018-09-05T16:45:33.178Z,12.20
2018-09-05T16:48:00.349Z,10.90
2018-09-05T16:50:27.544Z,11.27
2018-09-05T16:52:54.708Z,10.87
2018-09-05T16:55:21.886Z,11.33
2018-09-05T16:57:49.055Z,10.70
2018-09-05T17:00:16.853Z,12.63
2018-09-05T17:02:45.079Z,10.90
2018-09-05T17:05:12.309Z,10.10
2018-09-05T17:07:39.478Z,12.27
2018-09-05T17:10:06.655Z,11.53
2018-09-05T17:12:33.855Z,12.03
2018-09-05T17:15:01.027Z,11.07
2018-09-05T17:17:28.210Z,12.20
2018-09-05T17:22:29.100Z,12.93
2018-09-05T17:24:56.258Z,12.97
2018-09-05T17:27:23.475Z,12.30
2018-09-05T17:29:50.639Z,12.43
2018-09-05T17:32:17.842Z,12.33
2018-09-05T17:34:45.039Z,12.00
2018-09-05T17:37:12.236Z,11.83
2018-09-05T17:39:39.397Z,12.03
2018-09-05T17:42:06.590Z,12.23
2018-09-05T17:44:33.766Z,11.80
2018-09-05T17:47:01.046Z,12.33
2018-09-05T17:49:28.218Z,11.77
2018-09-05T17:51:55.407Z,12.37
2018-09-05T17:54:22.577Z,11.60
2018-09-05T17:56:50.099Z,12.60
2018-09-05T17:59:17.286Z,11.60
2018-09-05T18:01:44.959Z,12.60
2018-09-05T18:04:12.180Z,12.67
2018-09-05T18:06:39.482Z,12.87
2018-09-05T18:09:07.335Z,11.47
2018-09-05T18:11:34.550Z,12.90
2018-09-05T18:14:07.619Z,11.53
2018-09-05T18:16:38.565Z,11.10
2018-09-05T18:19:07.095Z,12.23
2018-09-05T18:21:34.290Z,12.63
2018-09-05T18:24:01.470Z,11.80
2018-09-05T18:26:28.651Z,11.80
2018-09-05T18:28:55.969Z,11.77
2018-09-05T18:31:23.928Z,11.13
2018-09-05T18:33:57.794Z,13.57
2018-09-05T18:36:24.923Z,12.00
2018-09-05T18:38:52.098Z,11.93
2018-09-05T18:41:19.294Z,12.27
2018-09-05T18:43:46.471Z,11.60
2018-09-05T18:46:13.661Z,11.90
2018-09-05T18:48:40.822Z,11.40
2018-09-05T18:51:07.995Z,11.60
2018-09-05T18:53:35.170Z,12.50
2018-09-05T18:56:02.342Z,11.70
2018-09-05T18:58:29.525Z,10.93
2018-09-05T19:00:56.708Z,11.53
2018-09-05T19:03:23.883Z,11.10
2018-09-05T19:05:51.050Z,11.73
2018-09-05T19:08:18.295Z,11.53
2018-09-05T19:10:45.417Z,11.80
2018-09-05T19:13:12.599Z,12.50
2018-09-05T19:15:39.756Z,11.47
2018-09-05T19:18:06.933Z,11.73
2018-09-05T19:20:34.102Z,11.20
2018-09-05T19:23:01.351Z,10.73
2018-09-05T19:25:28.476Z,11.20
2018-09-05T19:27:55.650Z,12.13
2018-09-05T19:30:22.815Z,10.43
2018-09-05T19:32:50.003Z,11.73
2018-09-05T19:35:17.170Z,11.13
2018-09-05T19:37:44.362Z,11.60
2018-09-05T19:40:11.518Z,10.40
2018-09-05T19:42:38.711Z,11.50
2018-09-05T19:45:06.275Z,10.90
2018-09-05T19:47:33.487Z,11.00
2018-09-05T19:50:00.663Z,10.90
2018-09-05T19:52:27.843Z,10.43
2018-09-05T19:54:54.999Z,10.67
2018-09-05T19:57:22.200Z,11.30
2018-09-05T19:59:49.360Z,10.60
2018-09-05T20:02:16.543Z,10.07
2018-09-05T20:04:43.707Z,10.13
2018-09-05T20:07:10.939Z,10.27
2018-09-05T20:09:38.908Z,9.60
2018-09-05T20:12:06.089Z,11.17
2018-09-05T20:14:33.324Z,10.60
2018-09-05T20:17:00.483Z,9.60
2018-09-05T20:19:27.653Z,11.33
2018-09-05T20:21:54.826Z,10.10
2018-09-05T20:24:22.019Z,10.40
2018-09-05T20:26:49.203Z,9.00
2018-09-05T20:29:16.395Z,10.20
2018-09-05T20:31:43.567Z,10.90
2018-09-05T20:34:10.779Z,10.67
2018-09-05T20:36:37.953Z,11.23
2018-09-05T20:39:06.874Z,10.67
2018-09-05T20:41:34.052Z,10.10
2018-09-05T20:44:01.234Z,10.17
2018-09-05T20:46:28.396Z,9.87
2018-09-05T20:48:55.588Z,10.17
2018-09-05T20:51:22.818Z,10.17
2018-09-05T20:53:49.999Z,9.53
2018-09-05T20:56:17.219Z,9.80
2018-09-05T20:58:44.475Z,10.67
2018-09-05T21:01:11.595Z,10.40
2018-09-05T21:03:39.096Z,9.70
2018-09-05T21:06:06.404Z,9.10
2018-09-05T21:08:33.706Z,9.33
2018-09-05T21:11:00.817Z,9.80
2018-09-05T21:13:28.013Z,10.27
2018-09-05T21:15:55.175Z,9.80
2018-09-05T21:18:22.351Z,8.90
2018-09-05T21:20:49.789Z,10.10
2018-09-05T21:23:16.968Z,9.17
2018-09-05T21:25:44.163Z,9.17
2018-09-05T21:28:11.348Z,9.40
2018-09-05T21:30:38.508Z,9.90
2018-09-05T21:33:05.687Z,10.07
2018-09-05T21:35:33.300Z,10.23
2018-09-05T21:38:00.471Z,10.03
2018-09-05T21:40:27.644Z,9.80
2018-09-05T21:42:54.818Z,9.70
2018-09-05T21:45:21.979Z,9.53
2018-09-05T21:47:49.156Z,9.47
2018-09-05T21:50:16.318Z,9.27
2018-09-05T21:52:43.533Z,8.93
2018-09-05T21:55:10.675Z,9.20
2018-09-05T21:57:37.884Z,10.50
2018-09-05T22:00:05.734Z,9.83
2018-09-05T22:02:32.904Z,10.40
2018-09-05T22:05:00.108Z,10.60
2018-09-05T22:07:27.271Z,11.10
2018-09-05T22:09:54.444Z,10.20
2018-09-05T22:12:21.611Z,10.67
2018-09-05T22:14:48.787Z,10.90
2018-09-05T22:17:15.958Z,10.63
2018-09-05T22:19:43.131Z,10.40
2018-09-05T22:22:10.298Z,11.07
2018-09-05T22:24:37.485Z,11.07
2018-09-05T22:27:04.643Z,11.50
2018-09-05T22:29:31.812Z,12.03
2018-09-05T22:31:58.966Z,11.00
2018-09-05T22:34:26.146Z,10.10
2018-09-05T22:36:53.309Z,10.90
2018-09-05T22:39:20.492Z,10.17
2018-09-05T22:41:47.653Z,10.13
2018-09-05T22:44:21.067Z,10.73
2018-09-05T22:46:53.750Z,11.40
2018-09-05T22:51:37.696Z,11.17
2018-09-05T22:54:30.304Z,10.30
2018-09-05T22:59:06.512Z,10.40
2018-09-05T23:01:41.912Z,10.07
2018-09-05T23:04:46.775Z,10.67
2018-09-05T23:07:19.588Z,10.73
2018-09-05T23:09:52.471Z,11.40
2018-09-05T23:12:25.271Z,11.27
2018-09-05T23:14:58.089Z,12.37
2018-09-05T23:17:35.556Z,11.20
2018-09-05T23:20:11.867Z,11.97
2018-09-05T23:22:44.793Z,10.13
2018-09-05T23:25:11.995Z,11.97
2018-09-05T23:27:39.219Z,11.37
2018-09-05T23:30:06.612Z,10.20
2018-09-05T23:32:33.799Z,10.63
2018-09-05T23:35:01.001Z,11.20
2018-09-05T23:37:28.176Z,11.20
2018-09-05T23:39:55.347Z,10.30
2018-09-05T23:42:22.535Z,11.33
2018-09-05T23:44:49.704Z,11.80
2018-09-05T23:47:16.894Z,12.03
2018-09-05T23:49:44.100Z,11.53
2018-09-05T23:52:11.286Z,11.33
2018-09-05T23:54:38.447Z,11.13
2018-09-05T23:57:05.623Z,10.67
2018-09-05T23:59:32.795Z,11.17
